Time;durP1;ratioP1;P1;durP2;ratioP2;P2;SDS_P1;SDS_P2;PMS_P1;PMS_P2;Temp;Humidity;BMP_temperature;BMP_pressure;BME280_temperature;BME280_humidity;BME280_pressure;Samples;Min_cycle;Max_cycle;Signal;HPM_P1;HPM_P2
2022/08/10 00:00:42;;;;;;;;;;;;;;;16.12;100.00;99937.05;1724981;83;20417;-78
2022/08/10 00:03:08;;;;;;;;;;;;;;;16.15;100.00;99934.97;1700234;83;20165;-78
2022/08/10 00:05:35;;;;;;;;;;;;;;;16.17;100.00;99929.90;1724951;83;21083;-77
2022/08/10 00:08:02;;;;;;;;;;;;;;;16.18;100.00;99927.33;1724911;83;20124;-78
2022/08/10 00:10:28;;;;;;;;;;;;;;;16.16;100.00;99918.02;1725125;83;20073;-78
2022/08/10 00:12:55;;;;;;;;;;;;;;;16.17;100.00;99918.82;1725199;83;20085;-77
2022/08/10 00:15:21;;;;;;;;;;;;;;;16.16;100.00;99930.48;1717754;83;20140;-77
2022/08/10 00:17:48;;;;;;;;;;;;;;;16.14;100.00;99926.43;1690301;84;21962;-76
2022/08/10 00:20:14;;;;;;;;;;;;;;;16.12;100.00;99922.63;1690351;84;20088;-76
2022/08/10 00:22:41;;;;;;;;;;;;;;;16.10;100.00;99922.16;1690195;85;20151;-76
2022/08/10 00:25:08;;;;;;;;;;;;;;;16.09;100.00;99919.73;1690215;85;20217;-76
2022/08/10 00:27:34;;;;;;;;;;;;;;;16.07;100.00;99917.87;1690476;84;20114;-76
2022/08/10 00:30:00;;;;;;;;;;;;;;;16.04;100.00;99919.38;1690225;85;21152;-77
2022/08/10 00:32:27;;;;;;;;;;;;;;;16.01;100.00;99912.33;1690309;84;20076;-76
2022/08/10 00:34:53;;;;;;;;;;;;;;;15.98;100.00;99918.55;1690430;85;20147;-77
2022/08/10 00:37:19;;;;;;;;;;;;;;;15.94;100.00;99923.96;1690378;85;20087;-77
2022/08/10 00:39:46;;;;;;;;;;;;;;;15.91;100.00;99932.14;1690194;84;20470;-77
2022/08/10 00:42:13;;;;;;;;;;;;;;;15.84;100.00;99919.67;1690552;85;21092;-77
2022/08/10 00:44:41;;;;;;;;;;;;;;;15.82;100.00;99925.31;1690113;85;20385;-77
2022/08/10 00:47:08;;;;;;;;;;;;;;;15.80;100.00;99924.27;1690214;85;20124;-76
2022/08/10 00:49:35;;;;;;;;;;;;;;;15.78;100.00;99923.80;1690487;85;20099;-76
2022/08/10 00:52:01;;;;;;;;;;;;;;;15.73;100.00;99925.97;1690458;85;20147;-76
2022/08/10 00:54:28;;;;;;;;;;;;;;;15.67;100.00;99923.98;1690355;83;21111;-76
2022/08/10 00:56:54;;;;;;;;;;;;;;;15.63;100.00;99925.82;1690527;84;20128;-76
2022/08/10 00:59:21;;;;;;;;;;;;;;;15.59;100.00;99920.76;1690417;85;20147;-76
2022/08/10 01:01:48;;;;;;;;;;;;;;;15.55;100.00;99923.94;1690164;85;20099;-76
2022/08/10 01:04:14;;;;;;;;;;;;;;;15.52;100.00;99920.47;1690426;84;20174;-77
2022/08/10 01:07:06;;;;;;;;;;;;;;;15.49;100.00;99916.99;1690050;84;21152;-77
2022/08/10 01:09:55;;;;;;;;;;;;;;;15.48;100.00;99909.84;1690068;84;20434;-77
2022/08/10 01:12:46;;;;;;;;;;;;;;;15.48;100.00;99916.76;1690607;85;20100;-77
2022/08/10 01:15:33;;;;;;;;;;;;;;;15.46;100.00;99921.25;1690286;83;20361;-76
2022/08/10 01:18:24;;;;;;;;;;;;;;;15.47;100.00;99926.20;1724970;83;20097;-77
2022/08/10 01:21:18;;;;;;;;;;;;;;;15.49;100.00;99929.44;1724843;83;21243;-76
2022/08/10 01:23:48;;;;;;;;;;;;;;;15.48;100.00;99915.38;1724984;83;20609;-76
2022/08/10 01:26:30;;;;;;;;;;;;;;;15.46;100.00;99915.72;1725122;83;20081;-76
2022/08/10 01:29:30;;;;;;;;;;;;;;;15.47;100.00;99908.23;1725009;83;37847;-76
2022/08/10 01:31:59;;;;;;;;;;;;;;;15.47;100.00;99904.08;1724932;83;20159;-75
2022/08/10 01:34:35;;;;;;;;;;;;;;;15.49;100.00;99908.69;1724937;83;21523;-75
2022/08/10 01:37:04;;;;;;;;;;;;;;;15.50;100.00;99911.70;1724828;83;20089;-76
2022/08/10 01:39:34;;;;;;;;;;;;;;;15.52;100.00;99903.87;1725155;83;20128;-76
2022/08/10 01:42:00;;;;;;;;;;;;;;;15.53;100.00;99898.56;1724010;83;20123;-77
2022/08/10 01:44:29;;;;;;;;;;;;;;;15.53;100.00;99898.56;1725202;83;20138;-76
2022/08/10 01:48:27;;;;;;;;;;;;;;;15.53;100.00;99895.80;1724901;83;21520;-75
2022/08/10 01:49:26;;;;;;;;;;;;;;;15.55;100.00;99902.37;1696825;83;20121;-76
2022/08/10 01:51:55;;;;;;;;;;;;;;;15.56;100.00;99904.80;1725036;83;20097;-75
2022/08/10 01:54:23;;;;;;;;;;;;;;;15.56;100.00;99907.57;1724759;83;20168;-76
2022/08/10 01:56:51;;;;;;;;;;;;;;;15.55;100.00;99917.02;1724948;83;20093;-77
2022/08/10 01:59:25;;;;;;;;;;;;;;;15.52;100.00;99912.16;1725156;83;21102;-79
2022/08/10 02:01:54;;;;;;;;;;;;;;;15.52;100.00;99908.02;1724794;83;20101;-78
2022/08/10 02:04:21;;;;;;;;;;;;;;;15.49;100.00;99901.78;1724980;83;20125;-75
2022/08/10 02:06:49;;;;;;;;;;;;;;;15.45;100.00;99900.27;1724287;83;20108;-75
2022/08/10 02:09:24;;;;;;;;;;;;;;;15.43;100.00;99899.80;1723725;83;20173;-75
2022/08/10 02:11:51;;;;;;;;;;;;;;;15.42;100.00;99909.81;1725188;83;21808;-74
2022/08/10 02:14:17;;;;;;;;;;;;;;;15.44;100.00;99918.59;1725118;83;20073;-74
2022/08/10 02:16:45;;;;;;;;;;;;;;;15.44;100.00;99914.44;1724843;83;20117;-75
2022/08/10 02:19:13;;;;;;;;;;;;;;;15.43;100.00;99915.02;1724894;83;20515;-74
2022/08/10 02:21:40;;;;;;;;;;;;;;;15.43;100.00;99909.48;1724764;83;20149;-74
2022/08/10 02:24:07;;;;;;;;;;;;;;;15.41;100.00;99904.05;1724751;83;21234;-75
2022/08/10 02:26:34;;;;;;;;;;;;;;;15.41;100.00;99897.94;1724664;83;20121;-75
2022/08/10 02:29:01;;;;;;;;;;;;;;;15.43;100.00;99908.67;1724865;83;20152;-74
2022/08/10 02:31:27;;;;;;;;;;;;;;;15.44;100.00;99913.86;1724795;83;20191;-74
2022/08/10 02:33:54;;;;;;;;;;;;;;;15.43;100.00;99911.44;1700373;83;20113;-74
2022/08/10 02:36:20;;;;;;;;;;;;;;;15.42;100.00;99894.59;1724792;83;21155;-74
2022/08/10 02:38:52;;;;;;;;;;;;;;;15.39;100.00;99888.36;1724803;83;20436;-74
2022/08/10 02:41:29;;;;;;;;;;;;;;;15.38;100.00;99886.75;1725059;83;20417;-74
2022/08/10 02:43:59;;;;;;;;;;;;;;;15.39;100.00;99894.70;1724738;83;20389;-75
2022/08/10 02:46:30;;;;;;;;;;;;;;;15.39;100.00;99886.98;1725133;83;20456;-74
2022/08/10 02:49:01;;;;;;;;;;;;;;;15.39;100.00;99902.20;1724171;83;21047;-74
2022/08/10 02:51:45;;;;;;;;;;;;;;;15.39;100.00;99903.00;1724743;83;20109;-74
2022/08/10 02:54:20;;;;;;;;;;;;;;;15.40;100.00;99907.96;1724686;83;20421;-74
2022/08/10 02:56:59;;;;;;;;;;;;;;;15.41;100.00;99906.23;1724757;83;20444;-74
2022/08/10 02:59:32;;;;;;;;;;;;;;;15.42;100.00;99907.05;1724719;83;20464;-76
2022/08/10 03:01:59;;;;;;;;;;;;;;;15.41;100.00;99902.66;1725268;83;21103;-73
2022/08/10 03:04:29;;;;;;;;;;;;;;;15.42;100.00;99907.05;1723743;83;20428;-73
2022/08/10 03:06:59;;;;;;;;;;;;;;;15.41;100.00;99904.05;1725369;83;20400;-75
2022/08/10 03:09:26;;;;;;;;;;;;;;;15.42;100.00;99902.33;1700713;83;20097;-72
2022/08/10 03:12:01;;;;;;;;;;;;;;;15.43;100.00;99907.28;1725067;83;20167;-73
2022/08/10 03:14:28;;;;;;;;;;;;;;;15.45;100.00;99907.75;1724675;83;21188;-72
2022/08/10 03:17:00;;;;;;;;;;;;;;;15.45;100.00;99911.33;1707759;83;20087;-76
2022/08/10 03:19:29;;;;;;;;;;;;;;;15.47;100.00;99910.99;1688957;85;20187;-74
2022/08/10 03:21:57;;;;;;;;;;;;;;;15.46;100.00;99900.50;1689736;83;20148;-73
2022/08/10 03:24:26;;;;;;;;;;;;;;;15.47;100.00;99902.12;1690091;85;20126;-72
2022/08/10 03:26:53;;;;;;;;;;;;;;;15.48;100.00;99906.50;1690098;85;21155;-74
2022/08/10 03:29:20;;;;;;;;;;;;;;;15.51;100.00;99906.40;1690474;84;20124;-75
2022/08/10 03:31:47;;;;;;;;;;;;;;;15.50;100.00;99909.73;1690304;84;20100;-73
2022/08/10 03:34:18;;;;;;;;;;;;;;;15.50;100.00;99906.97;1690316;85;20088;-74
2022/08/10 03:37:01;;;;;;;;;;;;;;;15.49;100.00;99902.59;1690292;83;20139;-83
2022/08/10 03:39:21;;;;;;;;;;;;;;;15.50;100.00;99900.63;1688065;83;20754;-78
2022/08/10 03:41:56;;;;;;;;;;;;;;;15.51;100.00;99911.36;1664827;85;20143;-80
2022/08/10 03:44:30;;;;;;;;;;;;;;;15.51;100.00;99911.36;1664207;85;20463;-76
2022/08/10 03:47:01;;;;;;;;;;;;;;;15.52;100.00;99928.77;1690312;83;20108;-76
2022/08/10 03:49:31;;;;;;;;;;;;;;;15.52;100.00;99933.73;1690238;83;20096;-76
2022/08/10 03:52:07;;;;;;;;;;;;;;;15.52;100.00;99941.22;1665396;85;20291;-77
2022/08/10 03:54:35;;;;;;;;;;;;;;;15.52;100.00;99936.49;1663739;85;20466;-76
2022/08/10 03:57:02;;;;;;;;;;;;;;;15.55;100.00;99936.39;1664922;85;20100;-75
2022/08/10 03:59:32;;;;;;;;;;;;;;;15.58;100.00;99935.75;1690198;85;20099;-82
2022/08/10 04:02:05;;;;;;;;;;;;;;;15.60;100.00;99942.32;1690385;85;20076;-77
2022/08/10 04:04:33;;;;;;;;;;;;;;;15.60;100.00;99946.47;1689498;83;21192;-86
2022/08/10 04:07:04;;;;;;;;;;;;;;;15.58;100.00;99959.84;1690216;85;20087;-88
2022/08/10 04:09:30;;;;;;;;;;;;;;;15.55;100.00;99972.36;1690001;85;20123;-82
2022/08/10 04:11:56;;;;;;;;;;;;;;;15.53;100.00;99965.78;1690244;84;20442;-83
2022/08/10 04:14:34;;;;;;;;;;;;;;;15.53;100.00;99963.59;1664952;83;20450;-79
2022/08/10 04:17:00;;;;;;;;;;;;;;;15.56;100.00;99951.84;1702720;83;21298;-77
2022/08/10 04:19:27;;;;;;;;;;;;;;;15.59;100.00;99955.92;1721735;82;20094;-89
2022/08/10 04:22:03;;;;;;;;;;;;;;;15.58;100.00;99949.58;1725336;83;20432;-82
2022/08/10 04:24:31;;;;;;;;;;;;;;;15.58;100.00;99946.00;1714194;83;20452;-82
2022/08/10 04:27:02;;;;;;;;;;;;;;;15.57;100.00;99945.77;1725071;83;20076;-78
2022/08/10 04:29:29;;;;;;;;;;;;;;;15.57;100.00;99942.42;1724577;82;21175;-73
2022/08/10 04:32:06;;;;;;;;;;;;;;;15.56;100.00;99944.92;1699526;83;20085;-72
2022/08/10 04:34:33;;;;;;;;;;;;;;;15.55;100.00;99952.99;1722674;83;20205;-71
2022/08/10 04:37:11;;;;;;;;;;;;;;;15.56;100.00;99957.95;1723214;83;20300;-73
2022/08/10 04:39:41;;;;;;;;;;;;;;;15.57;100.00;99961.80;1724530;83;20113;-73
2022/08/10 04:42:06;;;;;;;;;;;;;;;15.60;100.00;99959.70;1724913;83;21123;-71
2022/08/10 04:44:48;;;;;;;;;;;;;;;15.64;100.00;99952.34;1714293;83;20121;-71
2022/08/10 04:47:09;;;;;;;;;;;;;;;15.68;100.00;99949.70;1719742;83;20101;-71
2022/08/10 04:49:39;;;;;;;;;;;;;;;15.73;100.00;99946.73;1723239;83;20109;-71
2022/08/10 04:52:10;;;;;;;;;;;;;;;15.77;100.00;99947.66;1700161;83;20085;-76
2022/08/10 04:54:40;;;;;;;;;;;;;;;15.75;100.00;99952.16;1700023;83;20101;-83
2022/08/10 04:57:11;;;;;;;;;;;;;;;15.76;100.00;99955.16;1724985;83;20117;-82
2022/08/10 04:59:38;;;;;;;;;;;;;;;15.79;100.00;99964.74;1724488;83;20149;-79
2022/08/10 05:02:08;;;;;;;;;;;;;;;15.80;100.00;99956.09;1724823;83;20461;-77
2022/08/10 05:04:37;;;;;;;;;;;;;;;15.83;100.00;99947.69;1724942;83;20096;-80
2022/08/10 05:07:12;;;;;;;;;;;;;;;15.85;100.00;99950.92;1724908;83;21107;-73
2022/08/10 05:09:42;;;;;;;;;;;;;;;15.90;100.00;99942.98;1726070;82;20081;-73
2022/08/10 05:12:15;;;;;;;;;;;;;;;16.00;100.00;99942.55;1724622;83;20097;-73
2022/08/10 05:14:43;;;;;;;;;;;;;;;16.02;100.00;99925.02;1700352;83;20124;-72
2022/08/10 05:17:11;;;;;;;;;;;;;;;16.01;100.00;99921.44;1724712;82;20156;-72
2022/08/10 05:19:47;;;;;;;;;;;;;;;16.01;100.00;99925.59;1731176;82;22060;-72
2022/08/10 05:22:13;;;;;;;;;;;;;;;16.04;100.00;99916.60;1753776;82;20429;-72
2022/08/10 05:24:41;;;;;;;;;;;;;;;16.13;100.00;99919.27;1754880;82;20118;-73
2022/08/10 05:27:14;;;;;;;;;;;;;;;16.21;100.00;99911.98;1754336;81;20083;-71
2022/08/10 05:29:47;;;;;;;;;;;;;;;16.34;100.00;99911.66;1748459;82;20091;-72
2022/08/10 05:32:14;;;;;;;;;;;;;;;16.46;100.00;99915.82;1728333;82;20126;-71
2022/08/10 05:34:49;;;;;;;;;;;;;;;16.55;100.00;99924.60;1753897;82;20094;-72
2022/08/10 05:37:16;;;;;;;;;;;;;;;16.57;100.00;99929.22;1753622;82;20115;-72
2022/08/10 05:39:47;;;;;;;;;;;;;;;16.55;100.00;99935.11;1724976;83;20121;-73
2022/08/10 05:42:20;;;;;;;;;;;;;;;16.56;100.00;99941.46;1723649;83;20454;-72
2022/08/10 05:44:50;;;;;;;;;;;;;;;16.54;100.00;99950.70;1748792;82;21127;-72
2022/08/10 05:47:21;;;;;;;;;;;;;;;16.48;100.00;99952.31;1753395;82;20443;-72
2022/08/10 05:50:05;;;;;;;;;;;;;;;16.46;100.00;99953.23;1750076;82;20407;-71
2022/08/10 05:52:21;;;;;;;;;;;;;;;16.47;100.00;99956.23;1746912;82;20138;-71
2022/08/10 05:54:50;;;;;;;;;;;;;;;16.50;100.00;99951.97;1738508;82;20113;-72
2022/08/10 05:57:16;;;;;;;;;;;;;;;16.50;100.00;99955.55;1723479;82;20428;-71
2022/08/10 05:59:59;;;;;;;;;;;;;;;16.54;100.00;99957.05;1754579;82;20410;-71
2022/08/10 06:02:38;;;;;;;;;;;;;;;16.59;100.00;99959.59;1724068;83;20437;-72
2022/08/10 06:05:10;;;;;;;;;;;;;;;16.66;100.00;99956.28;1724510;83;20432;-72
2022/08/10 06:08:02;;;;;;;;;;;;;;;16.70;100.00;99964.13;1695880;83;20424;-72
2022/08/10 06:10:32;;;;;;;;;;;;;;;16.71;100.00;99961.59;1698962;83;20108;-72
2022/08/10 06:15:51;;;;;;;;;;;;;;;16.78;100.00;99949.32;1724759;82;20097;-72
2022/08/10 06:18:20;;;;;;;;;;;;;;;16.84;100.00;99945.16;1724697;83;20093;-71
2022/08/10 06:20:50;;;;;;;;;;;;;;;16.91;100.00;99937.64;1725012;83;20096;-72
2022/08/10 06:23:29;;;;;;;;;;;;;;;16.96;100.00;99932.67;1724638;82;21257;-72
2022/08/10 06:25:56;;;;;;;;;;;;;;;17.02;100.00;99937.40;1724127;83;20089;-72
2022/08/10 06:28:24;;;;;;;;;;;;;;;17.09;100.00;99934.27;1724645;83;20150;-72
2022/08/10 06:30:57;;;;;;;;;;;;;;;17.14;100.00;99931.25;1724511;82;20148;-72
2022/08/10 06:33:25;;;;;;;;;;;;;;;17.19;100.00;99928.81;1724222;83;20108;-72
2022/08/10 06:35:54;;;;;;;;;;;;;;;17.27;100.00;99929.84;1724559;83;20636;-72
2022/08/10 06:38:24;;;;;;;;;;;;;;;17.32;100.00;99937.91;1723642;83;20088;-72
2022/08/10 06:40:52;;;;;;;;;;;;;;;17.29;100.00;99942.78;1718445;83;20124;-73
2022/08/10 06:43:23;;;;;;;;;;;;;;;17.29;100.00;99942.78;1698892;83;20109;-72
2022/08/10 06:46:00;;;;;;;;;;;;;;;17.31;100.00;99943.23;1698904;83;20109;-72
2022/08/10 06:48:36;;;;;;;;;;;;;;;17.35;100.00;99941.34;1724815;83;21128;-72
2022/08/10 06:51:08;;;;;;;;;;;;;;;17.39;100.00;99939.48;1699009;83;20131;-72
2022/08/10 06:53:45;;;;;;;;;;;;;;;17.47;100.00;99941.31;1724789;83;20081;-72
2022/08/10 06:56:14;;;;;;;;;;;;;;;17.53;100.00;99939.09;1700502;83;20334;-72
2022/08/10 06:58:52;;;;;;;;;;;;;;;17.54;100.00;99935.97;1724146;83;20165;-72
2022/08/10 07:01:26;;;;;;;;;;;;;;;17.60;100.00;99931.78;1705215;83;20983;-72
2022/08/10 07:03:56;;;;;;;;;;;;;;;17.67;100.00;99934.79;1724266;83;20084;-72
2022/08/10 07:06:25;;;;;;;;;;;;;;;17.74;100.00;99937.77;1723980;83;20085;-72
2022/08/10 07:08:57;;;;;;;;;;;;;;;17.80;100.00;99933.58;1724898;83;20084;-72
2022/08/10 07:11:28;;;;;;;;;;;;;;;17.83;99.35;99935.41;1699212;83;20168;-72
2022/08/10 07:13:57;;;;;;;;;;;;;;;17.80;99.51;99933.58;1724145;82;21177;-72
2022/08/10 07:16:27;;;;;;;;;;;;;;;17.82;99.03;99944.33;1724557;83;20120;-72
2022/08/10 07:18:59;;;;;;;;;;;;;;;17.84;99.09;99942.59;1702096;83;20097;-72
2022/08/10 07:21:27;;;;;;;;;;;;;;;17.88;98.45;99945.69;1698791;84;20449;-72
2022/08/10 07:23:57;;;;;;;;;;;;;;;17.92;98.77;99944.36;1698801;84;20185;-72
2022/08/10 07:26:26;;;;;;;;;;;;;;;17.98;99.21;99942.95;1713090;83;21933;-72
2022/08/10 07:28:58;;;;;;;;;;;;;;;18.05;97.55;99945.91;1723461;83;20116;-72
2022/08/10 07:31:27;;;;;;;;;;;;;;;18.04;97.23;99938.75;1723428;83;20463;-72
2022/08/10 07:33:58;;;;;;;;;;;;;;;18.07;96.71;99937.45;1722595;83;20144;-72
2022/08/10 07:36:25;;;;;;;;;;;;;;;18.14;97.43;99937.64;1710669;83;20111;-72
2022/08/10 07:38:55;;;;;;;;;;;;;;;18.23;96.54;99935.28;1684192;83;20107;-77
2022/08/10 07:41:30;;;;;;;;;;;;;;;18.35;96.42;99932.42;1698877;84;20137;-72
2022/08/10 07:44:01;;;;;;;;;;;;;;;18.47;96.37;99922.60;1698661;84;20117;-73
2022/08/10 07:46:43;;;;;;;;;;;;;;;18.62;96.47;99923.76;1700796;83;20153;-75
2022/08/10 07:49:15;;;;;;;;;;;;;;;18.72;94.16;99924.60;1679910;84;20145;-73
2022/08/10 07:51:44;;;;;;;;;;;;;;;18.74;93.96;99931.41;1697910;84;21161;-70
2022/08/10 07:54:15;;;;;;;;;;;;;;;18.82;94.48;99921.85;1697823;83;20121;-69
2022/08/10 07:56:48;;;;;;;;;;;;;;;18.94;94.38;99930.08;1698095;84;20113;-69
2022/08/10 07:59:15;;;;;;;;;;;;;;;19.00;94.47;99918.89;1697470;84;20173;-68
2022/08/10 08:01:49;;;;;;;;;;;;;;;19.04;92.41;99921.98;1698671;84;20125;-70
2022/08/10 08:04:17;;;;;;;;;;;;;;;19.04;92.84;99922.56;1698309;84;21153;-72
2022/08/10 08:06:45;;;;;;;;;;;;;;;19.07;92.16;99914.27;1699484;84;20128;-70
2022/08/10 08:09:14;;;;;;;;;;;;;;;19.13;91.39;99917.58;1698714;84;20110;-70
2022/08/10 08:11:50;;;;;;;;;;;;;;;19.14;90.15;99910.84;1698725;84;20122;-70
2022/08/10 08:14:17;;;;;;;;;;;;;;;19.06;88.60;99917.45;1698278;84;20086;-69
2022/08/10 08:16:50;;;;;;;;;;;;;;;18.94;89.20;99923.13;1701084;84;20457;-69
2022/08/10 08:19:21;;;;;;;;;;;;;;;18.86;89.28;99917.18;1720175;83;20441;-70
2022/08/10 08:21:54;;;;;;;;;;;;;;;18.83;90.28;99920.69;1724887;83;20128;-69
2022/08/10 08:24:24;;;;;;;;;;;;;;;18.86;91.15;99917.18;1723018;83;20436;-68
2022/08/10 08:26:56;;;;;;;;;;;;;;;18.87;91.41;99925.16;1724926;83;20441;-70
2022/08/10 08:29:42;;;;;;;;;;;;;;;18.92;90.88;99924.88;1722668;83;20129;-69
2022/08/10 08:32:05;;;;;;;;;;;;;;;18.95;89.03;99927.52;1718672;83;20417;-70
2022/08/10 08:34:31;;;;;;;;;;;;;;;18.91;89.57;99928.83;1724092;83;20464;-70
2022/08/10 08:37:03;;;;;;;;;;;;;;;18.87;89.96;99925.75;1721154;83;20100;-69
2022/08/10 08:39:35;;;;;;;;;;;;;;;18.89;91.00;99933.95;1724070;83;20085;-70
2022/08/10 08:42:19;;;;;;;;;;;;;;;18.95;91.04;99933.89;1696613;83;21116;-71
2022/08/10 08:45:06;;;;;;;;;;;;;;;19.04;90.47;99940.06;1725135;83;20085;-70
2022/08/10 08:47:37;;;;;;;;;;;;;;;19.08;89.96;99939.53;1725005;82;20177;-70
2022/08/10 08:50:29;;;;;;;;;;;;;;;19.13;90.89;99942.62;1700167;83;20117;-69
2022/08/10 08:53:11;;;;;;;;;;;;;;;19.20;90.85;99937.80;1724907;83;20104;-71
2022/08/10 08:55:57;;;;;;;;;;;;;;;19.26;90.73;99939.13;1724876;82;22148;-72
2022/08/10 08:58:37;;;;;;;;;;;;;;;19.31;91.34;99938.84;1724098;83;20120;-72
2022/08/10 09:01:27;;;;;;;;;;;;;;;19.33;90.85;99944.27;1695246;83;20428;-73
2022/08/10 09:04:17;;;;;;;;;;;;;;;19.34;91.52;99950.64;1724873;83;20816;-74
2022/08/10 09:06:55;;;;;;;;;;;;;;;19.39;91.25;99960.09;1699743;83;20089;-74
2022/08/10 09:09:52;;;;;;;;;;;;;;;19.42;91.68;99968.52;1724131;83;21253;-73
2022/08/10 09:12:42;;;;;;;;;;;;;;;19.42;91.84;99964.34;1725190;83;20121;-73
2022/08/10 09:15:23;;;;;;;;;;;;;;;19.43;92.72;99963.17;1722575;83;20085;-72
2022/08/10 09:17:56;;;;;;;;;;;;;;;19.53;92.93;99957.65;1721744;83;20105;-74
2022/08/10 09:20:51;;;;;;;;;;;;;;;19.61;92.59;99951.05;1701042;84;20198;-72
2022/08/10 09:23:30;;;;;;;;;;;;;;;19.74;92.45;99953.08;1698809;84;21301;-73
2022/08/10 09:26:04;;;;;;;;;;;;;;;19.82;91.09;99949.27;1693221;84;20189;-73
2022/08/10 09:28:35;;;;;;;;;;;;;;;19.87;89.97;99949.55;1697850;84;20117;-73
2022/08/10 09:31:11;;;;;;;;;;;;;;;19.88;90.33;99949.77;1697640;84;20148;-73
2022/08/10 09:33:50;;;;;;;;;;;;;;;19.88;90.36;99942.80;1699217;84;20425;-73
2022/08/10 09:36:38;;;;;;;;;;;;;;;19.90;90.61;99928.73;1704173;83;20129;-73
2022/08/10 09:39:31;;;;;;;;;;;;;;;19.92;89.74;99931.95;1699171;84;20085;-73
2022/08/10 09:42:17;;;;;;;;;;;;;;;19.93;88.42;99934.15;1698923;84;20421;-73
2022/08/10 09:44:50;;;;;;;;;;;;;;;19.85;89.75;99929.61;1699228;84;20444;-73
2022/08/10 09:47:45;;;;;;;;;;;;;;;19.85;90.67;99924.84;1698993;84;20145;-73
2022/08/10 09:50:24;;;;;;;;;;;;;;;19.88;90.76;99914.95;1699968;84;20125;-73
2022/08/10 09:53:07;;;;;;;;;;;;;;;19.94;91.18;99906.50;1689042;84;20166;-73
2022/08/10 09:56:02;;;;;;;;;;;;;;;20.02;91.42;99908.25;1698650;84;20101;-73
2022/08/10 09:58:56;;;;;;;;;;;;;;;20.04;90.26;99908.09;1698537;83;20157;-73
2022/08/10 10:01:37;;;;;;;;;;;;;;;20.05;90.46;99900.54;1732471;83;20170;-73
2022/08/10 10:04:33;;;;;;;;;;;;;;;20.10;89.18;99901.63;1730742;82;21168;-73
2022/08/10 10:07:10;;;;;;;;;;;;;;;20.14;90.05;99894.72;1725268;83;20171;-74
2022/08/10 10:09:39;;;;;;;;;;;;;;;20.18;89.99;99890.83;1733505;83;20126;-73
2022/08/10 10:12:36;;;;;;;;;;;;;;;20.20;89.25;99891.26;1700367;83;20149;-73
2022/08/10 10:15:25;;;;;;;;;;;;;;;20.18;89.09;99903.37;1732380;83;20138;-73
2022/08/10 10:18:12;;;;;;;;;;;;;;;20.21;88.87;99899.84;1704168;82;20125;-73
2022/08/10 10:21:02;;;;;;;;;;;;;;;20.27;89.24;99903.89;1732922;83;20256;-73
2022/08/10 10:23:57;;;;;;;;;;;;;;;20.32;88.69;99904.17;1733310;83;20074;-74
2022/08/10 10:26:32;;;;;;;;;;;;;;;20.40;89.21;99897.57;1733477;83;20082;-73
2022/08/10 10:29:22;;;;;;;;;;;;;;;20.54;88.50;99890.83;1733699;83;20425;-74
2022/08/10 10:32:18;;;;;;;;;;;;;;;20.63;88.32;99895.56;1733327;83;21251;-73
2022/08/10 10:34:57;;;;;;;;;;;;;;;20.78;88.08;99893.80;1733242;83;20146;-73
2022/08/10 10:37:21;;;;;;;;;;;;;;;20.98;87.37;99905.03;1733123;83;20087;-73
2022/08/10 10:39:52;;;;;;;;;;;;;;;21.18;85.84;99904.91;1704892;83;20135;-73
2022/08/10 10:42:30;;;;;;;;;;;;;;;21.41;85.67;99905.61;1704710;83;20114;-74
2022/08/10 10:45:29;;;;;;;;;;;;;;;21.65;83.32;99902.32;1733778;83;21839;-74
2022/08/10 10:48:23;;;;;;;;;;;;;;;21.84;82.90;99898.55;1729425;83;20114;-73
2022/08/10 10:51:17;;;;;;;;;;;;;;;22.03;81.59;99898.94;1733780;83;20100;-73
2022/08/10 10:54:06;;;;;;;;;;;;;;;22.14;79.92;99896.25;1703731;83;20122;-73
2022/08/10 10:56:57;;;;;;;;;;;;;;;22.24;79.71;99897.75;1733778;83;20425;-73
2022/08/10 10:59:51;;;;;;;;;;;;;;;22.38;80.08;99900.67;1704952;83;20087;-73
2022/08/10 11:02:38;;;;;;;;;;;;;;;22.52;79.94;99897.19;1702463;83;20151;-73
2022/08/10 11:05:38;;;;;;;;;;;;;;;22.63;77.43;99902.25;1694835;83;20089;-73
2022/08/10 11:08:17;;;;;;;;;;;;;;;22.66;77.04;99893.08;1708379;83;20267;-74
2022/08/10 11:10:55;;;;;;;;;;;;;;;22.68;73.41;99893.48;1717323;83;20107;-74
2022/08/10 11:13:40;;;;;;;;;;;;;;;22.62;74.96;99888.64;1699608;83;21300;-73
2022/08/10 11:16:23;;;;;;;;;;;;;;;22.58;75.66;99878.83;1716946;83;20422;-72
2022/08/10 11:19:08;;;;;;;;;;;;;;;22.60;76.62;99884.84;1736541;82;20206;-72
2022/08/10 11:21:42;;;;;;;;;;;;;;;22.59;76.40;99885.23;1754947;82;20082;-73
2022/08/10 11:24:48;;;;;;;;;;;;;;;22.52;75.14;99885.20;1754306;82;20083;-73
2022/08/10 11:27:22;;;;;;;;;;;;;;;22.45;75.39;99890.14;1748606;82;21111;-73
2022/08/10 11:29:58;;;;;;;;;;;;;;;22.38;76.50;99884.48;1754180;82;20083;-73
2022/08/10 11:32:38;;;;;;;;;;;;;;;22.36;76.25;99884.88;1754504;82;20441;-73
2022/08/10 11:35:25;;;;;;;;;;;;;;;22.39;75.84;99884.10;1747877;82;20097;-73
2022/08/10 11:38:18;;;;;;;;;;;;;;;22.44;75.74;99873.74;1734486;82;20136;-73
2022/08/10 11:41:00;;;;;;;;;;;;;;;22.53;74.90;99867.22;1727014;82;21957;-72
2022/08/10 11:43:28;;;;;;;;;;;;;;;22.64;74.58;99870.87;1754314;82;20091;-72
2022/08/10 11:46:06;;;;;;;;;;;;;;;22.68;73.76;99874.50;1729500;82;20078;-73
2022/08/10 11:48:43;;;;;;;;;;;;;;;22.65;73.49;99871.88;1755007;82;20228;-73
2022/08/10 11:51:26;;;;;;;;;;;;;;;22.58;74.00;99868.23;1724083;82;20446;-73
2022/08/10 11:54:09;;;;;;;;;;;;;;;22.56;74.25;99873.41;1754662;81;21122;-73
2022/08/10 11:56:53;;;;;;;;;;;;;;;22.54;74.73;99877.19;1754777;82;20461;-73
2022/08/10 12:02:18;;;;;;;;;;;;;;;22.44;75.28;99878.74;1750755;82;20154;-73
2022/08/10 12:05:13;;;;;;;;;;;;;;;22.39;74.99;99856.13;1753249;82;20099;-73
2022/08/10 12:07:31;;;;;;;;;;;;;;;22.40;75.48;99868.92;1746839;82;21088;-72
2022/08/10 12:09:59;;;;;;;;;;;;;;;22.45;74.99;99857.17;1753290;82;20083;-72
2022/08/10 12:12:32;;;;;;;;;;;;;;;22.43;75.55;99854.76;1752952;82;20118;-72
2022/08/10 12:15:02;;;;;;;;;;;;;;;22.49;75.45;99864.40;1752034;82;20423;-73
2022/08/10 12:17:38;;;;;;;;;;;;;;;22.56;75.92;99865.82;1729983;82;20135;-72
2022/08/10 12:20:08;;;;;;;;;;;;;;;22.67;75.49;99871.49;1739394;82;21123;-72
2022/08/10 12:22:48;;;;;;;;;;;;;;;22.69;74.79;99871.31;1733680;83;20146;-75
2022/08/10 12:25:20;;;;;;;;;;;;;;;22.67;75.11;99864.50;1720739;83;20107;-73
2022/08/10 12:27:54;;;;;;;;;;;;;;;22.68;75.83;99861.91;1700746;83;20081;-72
2022/08/10 12:30:21;;;;;;;;;;;;;;;22.76;76.32;99866.95;1696726;84;20429;-74
2022/08/10 12:33:03;;;;;;;;;;;;;;;22.90;76.33;99861.48;1698255;84;21231;-82
2022/08/10 12:35:56;;;;;;;;;;;;;;;23.10;75.62;99868.98;1699087;84;20085;-74
2022/08/10 12:38:43;;;;;;;;;;;;;;;23.29;75.17;99870.05;1678417;84;20280;-73
2022/08/10 12:41:44;;;;;;;;;;;;;;;23.42;72.16;99867.70;1702393;84;20168;-74
2022/08/10 12:44:12;;;;;;;;;;;;;;;23.46;71.39;99869.33;1675123;84;20142;-74
2022/08/10 12:46:46;;;;;;;;;;;;;;;23.40;71.81;99852.70;1698405;84;21829;-73
2022/08/10 12:49:31;;;;;;;;;;;;;;;23.35;72.14;99860.08;1678672;84;20463;-75
2022/08/10 12:52:14;;;;;;;;;;;;;;;23.31;73.05;99867.66;1699127;84;20085;-74
2022/08/10 12:54:43;;;;;;;;;;;;;;;23.27;72.65;99862.05;1698901;84;20101;-75
2022/08/10 12:57:18;;;;;;;;;;;;;;;23.23;73.64;99859.02;1699039;84;20437;-74
2022/08/10 12:59:49;;;;;;;;;;;;;;;23.20;73.45;99860.61;1700906;84;20077;-74
2022/08/10 13:02:30;;;;;;;;;;;;;;;23.19;74.07;99870.81;1701103;84;20101;-74
2022/08/10 13:04:58;;;;;;;;;;;;;;;23.17;73.28;99864.80;1699016;84;20085;-74
2022/08/10 13:07:34;;;;;;;;;;;;;;;23.18;73.65;99863.59;1698987;84;20461;-75
2022/08/10 13:10:07;;;;;;;;;;;;;;;23.20;72.96;99862.61;1701195;84;20117;-74
2022/08/10 13:12:42;;;;;;;;;;;;;;;23.21;73.26;99854.41;1694675;84;21147;-74
2022/08/10 13:15:19;;;;;;;;;;;;;;;23.20;73.78;99848.01;1698877;84;20094;-74
2022/08/10 13:17:53;;;;;;;;;;;;;;;23.25;73.70;99842.03;1699256;84;20085;-74
2022/08/10 13:20:33;;;;;;;;;;;;;;;23.56;73.86;99838.38;1698096;83;20479;-74
2022/08/10 13:23:06;;;;;;;;;;;;;;;23.90;72.40;99838.81;1719055;83;20424;-74